sensor_id;sensor_type;location;lat;lon;timestamp;temperature;humidity
12959;DHT22;6544;51.666;6.634;2023-04-15T00:02:14;9.70;1.00
12959;DHT22;6544;51.666;6.634;2023-04-15T00:04:41;9.80;1.00
12959;DHT22;6544;51.666;6.634;2023-04-15T00:07:09;9.80;1.00
12959;DHT22;6544;51.666;6.634;2023-04-15T00:09:36;9.70;1.00
12959;DHT22;6544;51.666;6.634;2023-04-15T00:12:03;9.70;1.00
12959;DHT22;6544;51.666;6.634;2023-04-15T00:14:30;9.70;1.00
12959;DHT22;6544;51.666;6.634;2023-04-15T00:16:57;9.60;1.00
12959;DHT22;6544;51.666;6.634;2023-04-15T00:19:24;9.60;1.00
12959;DHT22;6544;51.666;6.634;2023-04-15T00:21:51;9.60;1.00
12959;DHT22;6544;51.666;6.634;2023-04-15T00:24:19;9.60;1.00
12959;DHT22;6544;51.666;6.634;2023-04-15T00:26:46;9.60;1.00
12959;DHT22;6544;51.666;6.634;2023-04-15T00:29:13;9.70;1.00
12959;DHT22;6544;51.666;6.634;2023-04-15T00:31:40;9.70;1.00
12959;DHT22;6544;51.666;6.634;2023-04-15T00:34:07;9.60;1.00
12959;DHT22;6544;51.666;6.634;2023-04-15T00:36:35;9.60;1.00
12959;DHT22;6544;51.666;6.634;2023-04-15T00:39:02;9.50;1.00
12959;DHT22;6544;51.666;6.634;2023-04-15T00:41:31;9.50;1.00
12959;DHT22;6544;51.666;6.634;2023-04-15T00:43:58;9.40;1.00
12959;DHT22;6544;51.666;6.634;2023-04-15T00:46:27;9.50;1.00
12959;DHT22;6544;51.666;6.634;2023-04-15T00:48:55;9.40;1.00
12959;DHT22;6544;51.666;6.634;2023-04-15T00:51:22;9.40;1.00
12959;DHT22;6544;51.666;6.634;2023-04-15T00:53:50;9.40;1.00
12959;DHT22;6544;51.666;6.634;2023-04-15T00:56:18;9.40;1.00
12959;DHT22;6544;51.666;6.634;2023-04-15T00:58:47;9.40;1.00
12959;DHT22;6544;51.666;6.634;2023-04-15T01:01:14;9.30;1.00
12959;DHT22;6544;51.666;6.634;2023-04-15T01:03:41;9.30;1.00
12959;DHT22;6544;51.666;6.634;2023-04-15T01:06:08;9.20;1.00
12959;DHT22;6544;51.666;6.634;2023-04-15T01:08:36;9.20;1.00
12959;DHT22;6544;51.666;6.634;2023-04-15T01:11:03;9.20;1.00
12959;DHT22;6544;51.666;6.634;2023-04-15T01:13:29;9.10;1.00
12959;DHT22;6544;51.666;6.634;2023-04-15T01:15:58;9.00;1.00
12959;DHT22;6544;51.666;6.634;2023-04-15T01:18:25;9.00;1.00
12959;DHT22;6544;51.666;6.634;2023-04-15T01:20:52;9.00;1.00
12959;DHT22;6544;51.666;6.634;2023-04-15T01:23:20;9.10;1.00
12959;DHT22;6544;51.666;6.634;2023-04-15T01:25:49;9.10;1.00
12959;DHT22;6544;51.666;6.634;2023-04-15T01:28:17;9.10;1.00
12959;DHT22;6544;51.666;6.634;2023-04-15T01:30:43;9.10;1.00
12959;DHT22;6544;51.666;6.634;2023-04-15T01:33:10;9.00;1.00
12959;DHT22;6544;51.666;6.634;2023-04-15T01:35:37;8.90;1.00
12959;DHT22;6544;51.666;6.634;2023-04-15T01:38:05;8.90;1.00
12959;DHT22;6544;51.666;6.634;2023-04-15T01:40:33;8.90;1.00
12959;DHT22;6544;51.666;6.634;2023-04-15T01:43:01;8.90;1.00
12959;DHT22;6544;51.666;6.634;2023-04-15T01:45:29;8.90;1.00
12959;DHT22;6544;51.666;6.634;2023-04-15T01:47:56;9.00;1.00
12959;DHT22;6544;51.666;6.634;2023-04-15T01:50:23;8.90;1.00
12959;DHT22;6544;51.666;6.634;2023-04-15T01:52:50;8.80;1.00
12959;DHT22;6544;51.666;6.634;2023-04-15T01:55:17;8.80;1.00
12959;DHT22;6544;51.666;6.634;2023-04-15T01:57:44;8.70;1.00
12959;DHT22;6544;51.666;6.634;2023-04-15T02:00:13;8.60;1.00
12959;DHT22;6544;51.666;6.634;2023-04-15T02:02:41;8.70;1.00
12959;DHT22;6544;51.666;6.634;2023-04-15T02:05:08;8.80;1.00
12959;DHT22;6544;51.666;6.634;2023-04-15T02:07:35;8.80;1.00
12959;DHT22;6544;51.666;6.634;2023-04-15T02:10:02;8.80;1.00
12959;DHT22;6544;51.666;6.634;2023-04-15T02:12:29;8.70;1.00
12959;DHT22;6544;51.666;6.634;2023-04-15T02:14:56;8.80;1.00
12959;DHT22;6544;51.666;6.634;2023-04-15T02:17:24;8.70;1.00
12959;DHT22;6544;51.666;6.634;2023-04-15T02:19:51;8.70;1.00
12959;DHT22;6544;51.666;6.634;2023-04-15T02:22:18;8.70;1.00
12959;DHT22;6544;51.666;6.634;2023-04-15T02:24:46;8.60;1.00
12959;DHT22;6544;51.666;6.634;2023-04-15T02:27:15;8.70;1.00
12959;DHT22;6544;51.666;6.634;2023-04-15T02:29:43;8.60;1.00
12959;DHT22;6544;51.666;6.634;2023-04-15T02:32:10;8.60;1.00
12959;DHT22;6544;51.666;6.634;2023-04-15T02:34:39;8.70;1.00
12959;DHT22;6544;51.666;6.634;2023-04-15T02:37:07;8.60;1.00
12959;DHT22;6544;51.666;6.634;2023-04-15T02:39:34;8.70;1.00
12959;DHT22;6544;51.666;6.634;2023-04-15T02:42:01;8.70;1.00
12959;DHT22;6544;51.666;6.634;2023-04-15T02:44:29;8.70;1.00
12959;DHT22;6544;51.666;6.634;2023-04-15T02:46:57;8.60;1.00
12959;DHT22;6544;51.666;6.634;2023-04-15T02:49:24;8.60;1.00
12959;DHT22;6544;51.666;6.634;2023-04-15T02:51:55;8.60;1.00
12959;DHT22;6544;51.666;6.634;2023-04-15T02:54:25;8.50;1.00
12959;DHT22;6544;51.666;6.634;2023-04-15T02:56:53;8.40;1.00
12959;DHT22;6544;51.666;6.634;2023-04-15T02:59:21;8.50;1.00
12959;DHT22;6544;51.666;6.634;2023-04-15T03:01:48;8.50;1.00
12959;DHT22;6544;51.666;6.634;2023-04-15T03:04:15;8.50;1.00
12959;DHT22;6544;51.666;6.634;2023-04-15T03:06:41;8.50;1.00
12959;DHT22;6544;51.666;6.634;2023-04-15T03:09:10;8.50;1.00
12959;DHT22;6544;51.666;6.634;2023-04-15T03:11:38;8.50;1.00
12959;DHT22;6544;51.666;6.634;2023-04-15T03:14:06;8.60;1.00
12959;DHT22;6544;51.666;6.634;2023-04-15T03:16:33;8.60;1.00
12959;DHT22;6544;51.666;6.634;2023-04-15T03:19:00;8.70;1.00
12959;DHT22;6544;51.666;6.634;2023-04-15T03:21:27;8.60;1.00
12959;DHT22;6544;51.666;6.634;2023-04-15T03:23:54;8.60;1.00
12959;DHT22;6544;51.666;6.634;2023-04-15T03:26:26;8.60;1.00
12959;DHT22;6544;51.666;6.634;2023-04-15T03:28:54;8.50;1.00
12959;DHT22;6544;51.666;6.634;2023-04-15T03:31:21;8.50;1.00
12959;DHT22;6544;51.666;6.634;2023-04-15T03:33:47;8.50;1.00
12959;DHT22;6544;51.666;6.634;2023-04-15T03:36:15;8.40;1.00
12959;DHT22;6544;51.666;6.634;2023-04-15T03:38:42;8.30;1.00
12959;DHT22;6544;51.666;6.634;2023-04-15T03:41:09;8.30;1.00
12959;DHT22;6544;51.666;6.634;2023-04-15T03:43:37;8.30;1.00
12959;DHT22;6544;51.666;6.634;2023-04-15T03:46:04;8.00;1.00
12959;DHT22;6544;51.666;6.634;2023-04-15T03:48:31;8.10;1.00
12959;DHT22;6544;51.666;6.634;2023-04-15T03:50:58;8.10;1.00
12959;DHT22;6544;51.666;6.634;2023-04-15T03:53:25;8.00;32.00
12959;DHT22;6544;51.666;6.634;2023-04-15T03:55:51;8.00;26.60
12959;DHT22;6544;51.666;6.634;2023-04-15T03:58:18;8.00;45.00
12959;DHT22;6544;51.666;6.634;2023-04-15T04:00:47;8.10;20.80
12959;DHT22;6544;51.666;6.634;2023-04-15T04:03:13;8.10;15.50
12959;DHT22;6544;51.666;6.634;2023-04-15T04:05:40;8.10;17.90
12959;DHT22;6544;51.666;6.634;2023-04-15T04:08:09;8.20;1.00
12959;DHT22;6544;51.666;6.634;2023-04-15T04:10:38;8.30;1.00
12959;DHT22;6544;51.666;6.634;2023-04-15T04:13:05;8.20;1.00
12959;DHT22;6544;51.666;6.634;2023-04-15T04:15:32;8.20;1.00
12959;DHT22;6544;51.666;6.634;2023-04-15T04:18:00;8.10;1.00
12959;DHT22;6544;51.666;6.634;2023-04-15T04:20:28;8.20;1.00
12959;DHT22;6544;51.666;6.634;2023-04-15T04:22:56;8.20;1.00
12959;DHT22;6544;51.666;6.634;2023-04-15T04:25:23;8.20;1.00
12959;DHT22;6544;51.666;6.634;2023-04-15T04:27:50;8.20;1.00
12959;DHT22;6544;51.666;6.634;2023-04-15T04:30:17;8.20;1.00
12959;DHT22;6544;51.666;6.634;2023-04-15T04:32:44;8.10;1.00
12959;DHT22;6544;51.666;6.634;2023-04-15T04:35:12;8.10;1.00
12959;DHT22;6544;51.666;6.634;2023-04-15T04:37:39;8.00;1.00
12959;DHT22;6544;51.666;6.634;2023-04-15T04:40:08;7.90;26.80
12959;DHT22;6544;51.666;6.634;2023-04-15T04:42:35;8.00;33.70
12959;DHT22;6544;51.666;6.634;2023-04-15T04:45:02;8.00;43.10
12959;DHT22;6544;51.666;6.634;2023-04-15T04:47:29;8.00;45.40
12959;DHT22;6544;51.666;6.634;2023-04-15T04:49:56;7.80;99.90
12959;DHT22;6544;51.666;6.634;2023-04-15T04:52:24;7.90;99.90
12959;DHT22;6544;51.666;6.634;2023-04-15T04:54:51;8.00;99.90
12959;DHT22;6544;51.666;6.634;2023-04-15T04:57:18;7.90;99.90
12959;DHT22;6544;51.666;6.634;2023-04-15T04:59:45;7.90;99.90
12959;DHT22;6544;51.666;6.634;2023-04-15T05:02:12;7.70;99.90
12959;DHT22;6544;51.666;6.634;2023-04-15T05:04:39;7.70;99.90
12959;DHT22;6544;51.666;6.634;2023-04-15T05:07:06;7.60;99.90
12959;DHT22;6544;51.666;6.634;2023-04-15T05:09:34;7.30;99.90
12959;DHT22;6544;51.666;6.634;2023-04-15T05:12:01;7.00;1.00
12959;DHT22;6544;51.666;6.634;2023-04-15T05:14:29;6.80;1.00
12959;DHT22;6544;51.666;6.634;2023-04-15T05:16:56;6.60;1.00
12959;DHT22;6544;51.666;6.634;2023-04-15T05:19:23;6.70;1.00
12959;DHT22;6544;51.666;6.634;2023-04-15T05:21:50;6.70;1.00
12959;DHT22;6544;51.666;6.634;2023-04-15T05:24:17;6.70;1.00
12959;DHT22;6544;51.666;6.634;2023-04-15T05:26:45;6.70;1.00
12959;DHT22;6544;51.666;6.634;2023-04-15T05:29:12;6.60;1.00
12959;DHT22;6544;51.666;6.634;2023-04-15T05:31:39;6.80;1.00
12959;DHT22;6544;51.666;6.634;2023-04-15T05:34:06;6.70;1.00
12959;DHT22;6544;51.666;6.634;2023-04-15T05:36:33;6.90;1.00
12959;DHT22;6544;51.666;6.634;2023-04-15T05:39:00;6.80;1.00
12959;DHT22;6544;51.666;6.634;2023-04-15T05:41:28;6.80;1.00
12959;DHT22;6544;51.666;6.634;2023-04-15T05:43:56;6.70;1.00
12959;DHT22;6544;51.666;6.634;2023-04-15T05:46:23;6.60;1.00
12959;DHT22;6544;51.666;6.634;2023-04-15T05:48:50;6.60;1.00
12959;DHT22;6544;51.666;6.634;2023-04-15T05:51:17;6.70;1.00
12959;DHT22;6544;51.666;6.634;2023-04-15T05:53:44;6.80;5.80
12959;DHT22;6544;51.666;6.634;2023-04-15T05:56:11;6.80;1.00
12959;DHT22;6544;51.666;6.634;2023-04-15T05:58:38;6.90;11.60
12959;DHT22;6544;51.666;6.634;2023-04-15T06:01:06;6.80;1.00
12959;DHT22;6544;51.666;6.634;2023-04-15T06:03:37;6.70;99.90
12959;DHT22;6544;51.666;6.634;2023-04-15T06:06:09;6.70;99.90
12959;DHT22;6544;51.666;6.634;2023-04-15T06:08:37;6.80;99.90
12959;DHT22;6544;51.666;6.634;2023-04-15T06:11:04;6.80;99.90
12959;DHT22;6544;51.666;6.634;2023-04-15T06:13:32;6.80;99.90
12959;DHT22;6544;51.666;6.634;2023-04-15T06:15:59;6.80;99.90
12959;DHT22;6544;51.666;6.634;2023-04-15T06:18:27;6.80;99.90
12959;DHT22;6544;51.666;6.634;2023-04-15T06:20:54;6.90;99.90
12959;DHT22;6544;51.666;6.634;2023-04-15T06:23:23;6.80;99.90
12959;DHT22;6544;51.666;6.634;2023-04-15T06:25:59;6.80;1.00
12959;DHT22;6544;51.666;6.634;2023-04-15T06:28:26;6.80;1.00
12959;DHT22;6544;51.666;6.634;2023-04-15T06:30:53;6.80;99.90
12959;DHT22;6544;51.666;6.634;2023-04-15T06:33:20;6.90;99.90
12959;DHT22;6544;51.666;6.634;2023-04-15T06:35:48;6.90;99.90
12959;DHT22;6544;51.666;6.634;2023-04-15T06:38:15;7.00;99.90
12959;DHT22;6544;51.666;6.634;2023-04-15T06:40:42;7.00;99.90
12959;DHT22;6544;51.666;6.634;2023-04-15T06:43:09;7.10;99.90
12959;DHT22;6544;51.666;6.634;2023-04-15T06:45:36;7.10;99.90
12959;DHT22;6544;51.666;6.634;2023-04-15T06:48:03;7.20;99.90
12959;DHT22;6544;51.666;6.634;2023-04-15T06:50:30;7.20;1.00
12959;DHT22;6544;51.666;6.634;2023-04-15T06:52:59;7.40;1.00
12959;DHT22;6544;51.666;6.634;2023-04-15T06:55:26;7.40;99.90
12959;DHT22;6544;51.666;6.634;2023-04-15T06:57:53;7.50;99.90
12959;DHT22;6544;51.666;6.634;2023-04-15T07:00:21;7.60;99.90
12959;DHT22;6544;51.666;6.634;2023-04-15T07:02:52;7.70;1.00
12959;DHT22;6544;51.666;6.634;2023-04-15T07:05:21;7.70;24.30
12959;DHT22;6544;51.666;6.634;2023-04-15T07:07:48;7.80;99.90
12959;DHT22;6544;51.666;6.634;2023-04-15T07:10:16;7.90;99.90
12959;DHT22;6544;51.666;6.634;2023-04-15T07:12:43;8.00;1.00
12959;DHT22;6544;51.666;6.634;2023-04-15T07:15:10;8.10;1.00
12959;DHT22;6544;51.666;6.634;2023-04-15T07:17:37;8.30;99.90
12959;DHT22;6544;51.666;6.634;2023-04-15T07:20:05;8.40;99.90
12959;DHT22;6544;51.666;6.634;2023-04-15T07:22:32;8.50;1.00
12959;DHT22;6544;51.666;6.634;2023-04-15T07:24:59;8.60;1.00
12959;DHT22;6544;51.666;6.634;2023-04-15T07:27:28;8.70;1.00
12959;DHT22;6544;51.666;6.634;2023-04-15T07:29:55;8.80;1.00
12959;DHT22;6544;51.666;6.634;2023-04-15T07:32:22;8.90;1.00
12959;DHT22;6544;51.666;6.634;2023-04-15T07:34:49;9.00;1.00
12959;DHT22;6544;51.666;6.634;2023-04-15T07:37:16;9.10;99.90
12959;DHT22;6544;51.666;6.634;2023-04-15T07:39:43;9.10;99.90
12959;DHT22;6544;51.666;6.634;2023-04-15T07:42:10;9.20;99.90
12959;DHT22;6544;51.666;6.634;2023-04-15T07:44:38;9.30;99.90
12959;DHT22;6544;51.666;6.634;2023-04-15T07:47:05;9.30;99.90
12959;DHT22;6544;51.666;6.634;2023-04-15T07:49:32;9.40;99.90
12959;DHT22;6544;51.666;6.634;2023-04-15T07:51:59;9.50;99.90
12959;DHT22;6544;51.666;6.634;2023-04-15T07:54:26;9.60;99.90
12959;DHT22;6544;51.666;6.634;2023-04-15T07:56:53;9.60;99.90
12959;DHT22;6544;51.666;6.634;2023-04-15T07:59:20;9.60;99.90
12959;DHT22;6544;51.666;6.634;2023-04-15T08:01:48;9.60;99.90
12959;DHT22;6544;51.666;6.634;2023-04-15T08:04:16;9.80;99.90
12959;DHT22;6544;51.666;6.634;2023-04-15T08:06:43;9.80;61.70
12959;DHT22;6544;51.666;6.634;2023-04-15T08:09:09;9.80;11.90
12959;DHT22;6544;51.666;6.634;2023-04-15T08:11:37;9.90;24.00
12959;DHT22;6544;51.666;6.634;2023-04-15T08:14:04;9.80;29.10
12959;DHT22;6544;51.666;6.634;2023-04-15T08:16:31;9.90;64.90
12959;DHT22;6544;51.666;6.634;2023-04-15T08:18:59;9.90;83.20
12959;DHT22;6544;51.666;6.634;2023-04-15T08:21:26;10.00;27.10
12959;DHT22;6544;51.666;6.634;2023-04-15T08:23:55;10.00;1.00
12959;DHT22;6544;51.666;6.634;2023-04-15T08:26:22;10.10;1.00
12959;DHT22;6544;51.666;6.634;2023-04-15T08:28:49;10.20;1.00
12959;DHT22;6544;51.666;6.634;2023-04-15T08:31:17;10.20;1.00
12959;DHT22;6544;51.666;6.634;2023-04-15T08:33:45;10.30;1.00
12959;DHT22;6544;51.666;6.634;2023-04-15T08:36:13;10.40;1.00
12959;DHT22;6544;51.666;6.634;2023-04-15T08:38:40;10.40;1.00
12959;DHT22;6544;51.666;6.634;2023-04-15T08:41:10;10.40;1.00
12959;DHT22;6544;51.666;6.634;2023-04-15T08:43:46;10.40;1.00
12959;DHT22;6544;51.666;6.634;2023-04-15T08:46:15;10.40;1.00
12959;DHT22;6544;51.666;6.634;2023-04-15T08:48:43;10.40;1.00
12959;DHT22;6544;51.666;6.634;2023-04-15T08:51:13;10.40;1.00
12959;DHT22;6544;51.666;6.634;2023-04-15T08:53:41;10.50;1.00
12959;DHT22;6544;51.666;6.634;2023-04-15T08:56:08;10.50;1.00
12959;DHT22;6544;51.666;6.634;2023-04-15T08:58:37;10.50;1.00
12959;DHT22;6544;51.666;6.634;2023-04-15T09:01:04;10.50;1.00
12959;DHT22;6544;51.666;6.634;2023-04-15T09:03:31;10.70;1.00
12959;DHT22;6544;51.666;6.634;2023-04-15T09:05:58;10.70;1.00
12959;DHT22;6544;51.666;6.634;2023-04-15T09:08:27;10.70;1.00
12959;DHT22;6544;51.666;6.634;2023-04-15T09:10:54;10.90;1.00
12959;DHT22;6544;51.666;6.634;2023-04-15T09:13:21;10.90;1.00
12959;DHT22;6544;51.666;6.634;2023-04-15T09:15:48;10.90;1.00
12959;DHT22;6544;51.666;6.634;2023-04-15T09:18:27;11.00;1.00
12959;DHT22;6544;51.666;6.634;2023-04-15T09:20:55;11.10;1.00
12959;DHT22;6544;51.666;6.634;2023-04-15T09:23:22;11.10;1.00
12959;DHT22;6544;51.666;6.634;2023-04-15T09:25:50;11.10;1.00
12959;DHT22;6544;51.666;6.634;2023-04-15T09:28:23;11.10;1.00
12959;DHT22;6544;51.666;6.634;2023-04-15T09:30:54;11.20;1.00
12959;DHT22;6544;51.666;6.634;2023-04-15T09:33:21;11.30;1.00
12959;DHT22;6544;51.666;6.634;2023-04-15T09:35:56;11.40;1.00
12959;DHT22;6544;51.666;6.634;2023-04-15T09:38:23;11.40;1.00
12959;DHT22;6544;51.666;6.634;2023-04-15T09:40:52;11.40;1.00
12959;DHT22;6544;51.666;6.634;2023-04-15T09:43:19;11.30;1.00
12959;DHT22;6544;51.666;6.634;2023-04-15T09:45:47;11.40;1.00
12959;DHT22;6544;51.666;6.634;2023-04-15T09:48:17;11.60;1.00
12959;DHT22;6544;51.666;6.634;2023-04-15T09:50:46;11.50;1.00
12959;DHT22;6544;51.666;6.634;2023-04-15T09:53:17;11.50;1.00
12959;DHT22;6544;51.666;6.634;2023-04-15T09:55:49;11.40;1.00
12959;DHT22;6544;51.666;6.634;2023-04-15T09:58:22;11.20;1.00
12959;DHT22;6544;51.666;6.634;2023-04-15T10:00:50;11.30;1.00
12959;DHT22;6544;51.666;6.634;2023-04-15T10:03:19;11.40;1.00
12959;DHT22;6544;51.666;6.634;2023-04-15T10:05:48;11.40;1.00
12959;DHT22;6544;51.666;6.634;2023-04-15T10:08:17;11.60;1.00
12959;DHT22;6544;51.666;6.634;2023-04-15T10:10:45;11.30;1.00
12959;DHT22;6544;51.666;6.634;2023-04-15T10:13:13;11.40;1.00
12959;DHT22;6544;51.666;6.634;2023-04-15T10:15:44;11.30;1.00
12959;DHT22;6544;51.666;6.634;2023-04-15T10:18:15;11.50;1.00
12959;DHT22;6544;51.666;6.634;2023-04-15T10:20:43;11.50;1.00
12959;DHT22;6544;51.666;6.634;2023-04-15T10:23:11;11.50;1.00
12959;DHT22;6544;51.666;6.634;2023-04-15T10:25:38;11.50;1.00
12959;DHT22;6544;51.666;6.634;2023-04-15T10:28:06;11.80;1.00
12959;DHT22;6544;51.666;6.634;2023-04-15T10:30:34;11.80;1.00
12959;DHT22;6544;51.666;6.634;2023-04-15T10:33:04;11.80;1.00
12959;DHT22;6544;51.666;6.634;2023-04-15T10:35:32;11.80;1.00
12959;DHT22;6544;51.666;6.634;2023-04-15T10:37:59;11.70;1.00
12959;DHT22;6544;51.666;6.634;2023-04-15T10:40:28;11.70;1.00
12959;DHT22;6544;51.666;6.634;2023-04-15T10:42:57;11.60;1.00
12959;DHT22;6544;51.666;6.634;2023-04-15T10:45:26;11.60;1.00
12959;DHT22;6544;51.666;6.634;2023-04-15T10:47:56;11.60;1.00
12959;DHT22;6544;51.666;6.634;2023-04-15T10:50:27;11.70;1.00
12959;DHT22;6544;51.666;6.634;2023-04-15T10:52:55;11.70;1.00
12959;DHT22;6544;51.666;6.634;2023-04-15T10:55:24;11.70;1.00
12959;DHT22;6544;51.666;6.634;2023-04-15T10:57:52;11.90;1.00
12959;DHT22;6544;51.666;6.634;2023-04-15T11:00:24;11.70;1.00
12959;DHT22;6544;51.666;6.634;2023-04-15T11:02:53;11.50;1.00
12959;DHT22;6544;51.666;6.634;2023-04-15T11:05:22;11.40;1.00
12959;DHT22;6544;51.666;6.634;2023-04-15T11:07:52;11.70;1.00
12959;DHT22;6544;51.666;6.634;2023-04-15T11:10:50;11.70;1.00
12959;DHT22;6544;51.666;6.634;2023-04-15T11:13:24;11.70;1.00
12959;DHT22;6544;51.666;6.634;2023-04-15T11:16:00;11.60;1.00
12959;DHT22;6544;51.666;6.634;2023-04-15T11:18:29;11.30;1.00
12959;DHT22;6544;51.666;6.634;2023-04-15T11:20:58;11.20;1.00
12959;DHT22;6544;51.666;6.634;2023-04-15T11:23:32;11.10;1.00
12959;DHT22;6544;51.666;6.634;2023-04-15T11:26:01;11.20;1.00
12959;DHT22;6544;51.666;6.634;2023-04-15T11:28:30;11.30;1.00
12959;DHT22;6544;51.666;6.634;2023-04-15T11:30:59;11.20;1.00
12959;DHT22;6544;51.666;6.634;2023-04-15T11:33:31;11.20;1.00
12959;DHT22;6544;51.666;6.634;2023-04-15T11:35:58;11.30;1.00
12959;DHT22;6544;51.666;6.634;2023-04-15T11:38:25;11.30;1.00
12959;DHT22;6544;51.666;6.634;2023-04-15T11:40:54;11.30;1.00
12959;DHT22;6544;51.666;6.634;2023-04-15T11:43:22;11.40;1.00
12959;DHT22;6544;51.666;6.634;2023-04-15T11:45:52;11.50;1.00
12959;DHT22;6544;51.666;6.634;2023-04-15T11:48:20;11.40;1.00
12959;DHT22;6544;51.666;6.634;2023-04-15T11:50:52;11.40;1.00
12959;DHT22;6544;51.666;6.634;2023-04-15T11:53:20;11.50;1.00
12959;DHT22;6544;51.666;6.634;2023-04-15T11:55:49;11.70;1.00
12959;DHT22;6544;51.666;6.634;2023-04-15T11:58:19;11.80;1.00
12959;DHT22;6544;51.666;6.634;2023-04-15T12:00:48;11.90;1.00
12959;DHT22;6544;51.666;6.634;2023-04-15T12:03:19;11.90;1.00
12959;DHT22;6544;51.666;6.634;2023-04-15T12:06:12;11.80;1.00
12959;DHT22;6544;51.666;6.634;2023-04-15T12:09:06;11.70;1.00
12959;DHT22;6544;51.666;6.634;2023-04-15T12:11:39;11.50;1.00
12959;DHT22;6544;51.666;6.634;2023-04-15T12:14:15;11.50;1.00
12959;DHT22;6544;51.666;6.634;2023-04-15T12:16:44;11.50;1.00
12959;DHT22;6544;51.666;6.634;2023-04-15T12:19:13;11.50;1.00
12959;DHT22;6544;51.666;6.634;2023-04-15T12:21:42;11.70;1.00
12959;DHT22;6544;51.666;6.634;2023-04-15T12:24:10;11.70;1.00
12959;DHT22;6544;51.666;6.634;2023-04-15T12:26:43;11.70;1.00
12959;DHT22;6544;51.666;6.634;2023-04-15T12:29:14;11.80;1.00
12959;DHT22;6544;51.666;6.634;2023-04-15T12:31:49;11.70;1.00
12959;DHT22;6544;51.666;6.634;2023-04-15T12:34:17;11.40;1.00
12959;DHT22;6544;51.666;6.634;2023-04-15T12:36:45;11.60;1.00
12959;DHT22;6544;51.666;6.634;2023-04-15T12:39:12;11.50;1.00
12959;DHT22;6544;51.666;6.634;2023-04-15T12:41:39;11.60;1.00
12959;DHT22;6544;51.666;6.634;2023-04-15T12:44:06;11.50;1.00
12959;DHT22;6544;51.666;6.634;2023-04-15T12:46:34;11.60;1.00
12959;DHT22;6544;51.666;6.634;2023-04-15T12:49:01;11.70;1.00
12959;DHT22;6544;51.666;6.634;2023-04-15T12:51:29;11.70;1.00
12959;DHT22;6544;51.666;6.634;2023-04-15T12:53:56;11.70;1.00
12959;DHT22;6544;51.666;6.634;2023-04-15T12:56:23;11.40;1.00
12959;DHT22;6544;51.666;6.634;2023-04-15T12:58:51;11.30;1.00
12959;DHT22;6544;51.666;6.634;2023-04-15T13:01:18;11.30;1.00
12959;DHT22;6544;51.666;6.634;2023-04-15T13:03:46;11.30;1.00
12959;DHT22;6544;51.666;6.634;2023-04-15T13:06:14;11.20;1.00
12959;DHT22;6544;51.666;6.634;2023-04-15T13:08:41;11.20;1.00
12959;DHT22;6544;51.666;6.634;2023-04-15T13:11:09;11.20;1.00
12959;DHT22;6544;51.666;6.634;2023-04-15T13:13:36;11.30;1.00
12959;DHT22;6544;51.666;6.634;2023-04-15T13:16:03;11.40;1.00
12959;DHT22;6544;51.666;6.634;2023-04-15T13:18:30;11.40;1.00
12959;DHT22;6544;51.666;6.634;2023-04-15T13:21:01;11.30;1.00
12959;DHT22;6544;51.666;6.634;2023-04-15T13:23:28;11.30;1.00
12959;DHT22;6544;51.666;6.634;2023-04-15T13:25:55;11.50;1.00
12959;DHT22;6544;51.666;6.634;2023-04-15T13:28:22;11.20;1.00
12959;DHT22;6544;51.666;6.634;2023-04-15T13:30:49;11.30;1.00
12959;DHT22;6544;51.666;6.634;2023-04-15T13:33:16;11.30;1.00
12959;DHT22;6544;51.666;6.634;2023-04-15T13:35:43;11.50;1.00
12959;DHT22;6544;51.666;6.634;2023-04-15T13:38:12;11.20;1.00
12959;DHT22;6544;51.666;6.634;2023-04-15T13:40:39;11.30;1.00
12959;DHT22;6544;51.666;6.634;2023-04-15T13:43:05;11.10;1.00
12959;DHT22;6544;51.666;6.634;2023-04-15T13:45:32;10.90;1.00
12959;DHT22;6544;51.666;6.634;2023-04-15T13:47:59;10.80;1.00
12959;DHT22;6544;51.666;6.634;2023-04-15T13:50:27;10.90;1.00
12959;DHT22;6544;51.666;6.634;2023-04-15T13:52:54;10.90;1.00
12959;DHT22;6544;51.666;6.634;2023-04-15T13:55:22;11.00;1.00
12959;DHT22;6544;51.666;6.634;2023-04-15T13:57:49;11.10;1.00
12959;DHT22;6544;51.666;6.634;2023-04-15T14:00:16;11.20;1.00
12959;DHT22;6544;51.666;6.634;2023-04-15T14:02:43;11.20;1.00
12959;DHT22;6544;51.666;6.634;2023-04-15T14:05:10;11.20;1.00
12959;DHT22;6544;51.666;6.634;2023-04-15T14:07:37;11.10;1.00
12959;DHT22;6544;51.666;6.634;2023-04-15T14:10:06;11.20;1.00
12959;DHT22;6544;51.666;6.634;2023-04-15T14:12:34;11.10;1.00
12959;DHT22;6544;51.666;6.634;2023-04-15T14:15:01;11.00;1.00
12959;DHT22;6544;51.666;6.634;2023-04-15T14:17:28;11.00;1.00
12959;DHT22;6544;51.666;6.634;2023-04-15T14:19:55;11.00;1.00
12959;DHT22;6544;51.666;6.634;2023-04-15T14:22:22;11.00;1.00
12959;DHT22;6544;51.666;6.634;2023-04-15T14:24:49;11.10;1.00
12959;DHT22;6544;51.666;6.634;2023-04-15T14:27:18;11.00;1.00
12959;DHT22;6544;51.666;6.634;2023-04-15T14:29:46;11.00;1.00
12959;DHT22;6544;51.666;6.634;2023-04-15T14:32:13;11.00;1.00
12959;DHT22;6544;51.666;6.634;2023-04-15T14:34:40;11.00;1.00
12959;DHT22;6544;51.666;6.634;2023-04-15T14:37:07;10.90;1.00
12959;DHT22;6544;51.666;6.634;2023-04-15T14:39:34;10.70;1.00
12959;DHT22;6544;51.666;6.634;2023-04-15T14:42:00;10.60;3.50
12959;DHT22;6544;51.666;6.634;2023-04-15T14:44:27;10.60;28.50
12959;DHT22;6544;51.666;6.634;2023-04-15T14:46:56;10.60;51.50
12959;DHT22;6544;51.666;6.634;2023-04-15T14:49:23;10.70;44.70
12959;DHT22;6544;51.666;6.634;2023-04-15T14:51:50;10.80;16.50
12959;DHT22;6544;51.666;6.634;2023-04-15T14:54:17;10.80;9.90
12959;DHT22;6544;51.666;6.634;2023-04-15T14:56:44;10.70;12.40
12959;DHT22;6544;51.666;6.634;2023-04-15T14:59:11;10.70;21.60
12959;DHT22;6544;51.666;6.634;2023-04-15T15:01:38;10.70;17.40
12959;DHT22;6544;51.666;6.634;2023-04-15T15:04:06;10.80;14.20
12959;DHT22;6544;51.666;6.634;2023-04-15T15:06:33;10.70;16.40
12959;DHT22;6544;51.666;6.634;2023-04-15T15:09:00;10.70;44.40
12959;DHT22;6544;51.666;6.634;2023-04-15T15:11:27;10.70;43.90
12959;DHT22;6544;51.666;6.634;2023-04-15T15:13:54;10.60;58.50
12959;DHT22;6544;51.666;6.634;2023-04-15T15:16:22;10.40;99.90
12959;DHT22;6544;51.666;6.634;2023-04-15T15:18:50;10.30;99.90
12959;DHT22;6544;51.666;6.634;2023-04-15T15:21:18;10.40;99.90
12959;DHT22;6544;51.666;6.634;2023-04-15T15:23:45;10.30;99.90
12959;DHT22;6544;51.666;6.634;2023-04-15T15:26:13;10.40;99.90
12959;DHT22;6544;51.666;6.634;2023-04-15T15:28:40;10.40;99.90
12959;DHT22;6544;51.666;6.634;2023-04-15T15:31:07;10.40;99.90
12959;DHT22;6544;51.666;6.634;2023-04-15T15:33:34;10.40;99.90
12959;DHT22;6544;51.666;6.634;2023-04-15T15:36:02;10.40;99.90
12959;DHT22;6544;51.666;6.634;2023-04-15T15:38:31;10.50;99.90
12959;DHT22;6544;51.666;6.634;2023-04-15T15:40:57;10.40;99.90
12959;DHT22;6544;51.666;6.634;2023-04-15T15:43:24;10.40;99.90
12959;DHT22;6544;51.666;6.634;2023-04-15T15:45:51;10.30;99.90
12959;DHT22;6544;51.666;6.634;2023-04-15T15:48:20;10.30;99.90
12959;DHT22;6544;51.666;6.634;2023-04-15T15:50:47;10.30;99.90
12959;DHT22;6544;51.666;6.634;2023-04-15T15:53:14;10.40;99.90
12959;DHT22;6544;51.666;6.634;2023-04-15T15:55:46;10.40;99.90
12959;DHT22;6544;51.666;6.634;2023-04-15T15:58:13;10.30;99.90
12959;DHT22;6544;51.666;6.634;2023-04-15T16:00:40;10.30;99.90
12959;DHT22;6544;51.666;6.634;2023-04-15T16:03:08;10.30;99.90
12959;DHT22;6544;51.666;6.634;2023-04-15T16:05:35;10.30;99.90
12959;DHT22;6544;51.666;6.634;2023-04-15T16:08:02;10.20;99.90
12959;DHT22;6544;51.666;6.634;2023-04-15T16:10:29;10.20;99.90